Linhares, Brazil
Current Conditions -  °F | °C
As of 8:00 PM on Wednesday 22 Oct 2014 (Local Time) from SBVT Reporting Station
Broken Clouds Broken Clouds  
Wind Chill: 73°   Ceiling: 4000
Heat Index: 73°   Visibility: 6mi
Dew Point: 59°   Wind: 12mph
Humidity: 61%   Direction: 210°SSW
Pressure: 30.15"   Gusts: NA
Location:  19.39°S, 40.05°W
Report Text: SBVT 222200Z 21010KT 9999 BKN040 23/15 Q1021
Loading
Personal Weather Stations






























Interactive Weather Map
Tropical Storm Tracking
New forecast layout! Learn more

10-Day Weather Forecast

Advertisements
Track Severe Weather on mobile